Time;durP1;ratioP1;P1;durP2;ratioP2;P2;SDS_P1;SDS_P2;PMS_P1;PMS_P2;Temp;Humidity;BMP_temperature;BMP_pressure;BME280_temperature;BME280_humidity;BME280_pressure;Samples;Min_cycle;Max_cycle;Signal;HPM_P1;HPM_P2
2021/11/26 00:00:55;;;;;;;147.07;58.72;;;-0.30;99.90;;;;;;6253836;22;20035;-89
2021/11/26 00:03:42;;;;;;;136.43;55.35;;;-0.20;99.90;;;;;;6236586;22;20110;-90
2021/11/26 00:06:31;;;;;;;144.57;55.92;;;-0.20;99.90;;;;;;6275751;22;20055;-89
2021/11/26 00:09:20;;;;;;;146.57;58.33;;;-0.20;99.90;;;;;;6256012;22;20046;-89
2021/11/26 00:12:08;;;;;;;140.80;56.00;;;-0.30;99.90;;;;;;6277487;22;20043;-90
2021/11/26 00:17:55;;;;;;;132.52;55.83;;;-0.30;99.90;;;;;;6254905;22;20024;-88
2021/11/26 00:20:43;;;;;;;139.65;57.47;;;-0.30;99.90;;;;;;6254273;22;20032;-90
2021/11/26 00:23:30;;;;;;;148.93;57.63;;;-0.30;99.90;;;;;;6252267;22;20027;-89
2021/11/26 00:26:17;;;;;;;138.13;57.03;;;-0.30;99.90;;;;;;6234536;22;20091;-88
2021/11/26 00:29:06;;;;;;;140.43;54.65;;;-0.20;99.90;;;;;;6234373;22;20073;-89
2021/11/26 00:31:53;;;;;;;131.88;53.70;;;-0.30;99.90;;;;;;6277106;22;20028;-90
2021/11/26 00:34:40;;;;;;;142.75;54.63;;;-0.30;99.90;;;;;;6256499;22;20444;-87
2021/11/26 00:37:30;;;;;;;134.48;52.97;;;-0.30;99.90;;;;;;6276974;22;20101;-90
2021/11/26 00:40:22;;;;;;;126.10;53.55;;;-0.30;99.90;;;;;;6277507;22;20051;-88
2021/11/26 00:43:11;;;;;;;134.13;55.13;;;-0.30;99.90;;;;;;6274571;22;20023;-89
2021/11/26 00:45:58;;;;;;;129.52;52.97;;;-0.30;99.90;;;;;;6255811;22;20153;-90
2021/11/26 00:48:50;;;;;;;133.60;54.60;;;-0.30;99.90;;;;;;6234160;22;20130;-89
2021/11/26 00:51:39;;;;;;;124.80;52.80;;;-0.30;99.90;;;;;;6253355;22;20365;-90
2021/11/26 00:54:27;;;;;;;128.93;52.47;;;-0.30;99.90;;;;;;6255691;22;20027;-92
2021/11/26 00:57:14;;;;;;;122.38;49.33;;;-0.40;99.90;;;;;;6263582;22;20038;-91
2021/11/26 01:00:06;;;;;;;135.02;51.95;;;-0.40;99.90;;;;;;6264941;22;20394;-89
2021/11/26 01:02:56;;;;;;;130.13;52.03;;;-0.40;99.90;;;;;;6282796;22;20027;-90
2021/11/26 01:05:46;;;;;;;132.40;52.38;;;-0.40;99.90;;;;;;6264104;22;20469;-90
2021/11/26 01:08:34;;;;;;;133.02;51.72;;;-0.40;99.90;;;;;;6285368;22;20089;-89
2021/11/26 01:11:21;;;;;;;132.05;55.60;;;-0.40;99.90;;;;;;6305256;22;20325;-89
2021/11/26 01:14:08;;;;;;;141.32;55.10;;;-0.40;99.90;;;;;;6284674;22;20058;-90
2021/11/26 01:16:57;;;;;;;135.65;51.72;;;-0.40;99.90;;;;;;6283645;22;20121;-88
2021/11/26 01:19:47;;;;;;;119.95;48.95;;;-0.40;99.90;;;;;;6285100;22;20126;-88
2021/11/26 01:22:37;;;;;;;131.32;52.78;;;-0.40;99.90;;;;;;6285497;22;20019;-90
2021/11/26 01:25:25;;;;;;;123.45;52.47;;;-0.40;99.90;;;;;;6284509;22;20148;-91
2021/11/26 01:28:12;;;;;;;131.07;51.22;;;-0.30;99.90;;;;;;6286323;22;20333;-89
2021/11/26 01:31:00;;;;;;;125.03;53.30;;;-0.30;99.90;;;;;;6283536;22;20426;-89
2021/11/26 01:33:47;;;;;;;137.27;52.85;;;-0.30;99.90;;;;;;6284856;22;20030;-90
2021/11/26 01:36:35;;;;;;;130.38;54.25;;;-0.30;99.90;;;;;;6261930;22;20308;-89
2021/11/26 01:39:23;;;;;;;124.47;51.80;;;-0.30;99.90;;;;;;6305868;22;20038;-90
2021/11/26 01:42:10;;;;;;;123.25;50.50;;;-0.30;99.90;;;;;;6284934;22;20042;-88
2021/11/26 01:44:57;;;;;;;122.22;50.80;;;-0.20;99.90;;;;;;6263965;22;20051;-88
2021/11/26 01:47:44;;;;;;;130.15;53.67;;;-0.20;99.90;;;;;;6282323;22;20027;-89
2021/11/26 01:50:32;;;;;;;125.70;51.22;;;-0.20;99.90;;;;;;6284426;22;20027;-89
2021/11/26 01:53:19;;;;;;;123.47;50.85;;;-0.20;99.90;;;;;;6264695;22;20026;-91
2021/11/26 01:56:06;;;;;;;129.32;51.45;;;-0.10;99.90;;;;;;6283046;22;20023;-89
2021/11/26 01:58:56;;;;;;;122.68;51.85;;;-0.10;99.90;;;;;;6307217;22;20057;-89
2021/11/26 02:01:44;;;;;;;127.35;51.97;;;-0.20;99.90;;;;;;6284209;22;20491;-90
2021/11/26 02:04:31;;;;;;;126.18;52.53;;;-0.20;99.90;;;;;;6264191;22;20023;-90
2021/11/26 02:07:19;;;;;;;120.65;52.00;;;-0.20;99.90;;;;;;6305756;22;20030;-90
2021/11/26 02:10:07;;;;;;;125.80;51.58;;;-0.20;99.90;;;;;;6262993;22;20708;-90
2021/11/26 02:12:55;;;;;;;120.47;53.33;;;-0.20;99.90;;;;;;6283397;22;20023;-89
2021/11/26 02:15:45;;;;;;;123.03;52.05;;;-0.20;99.90;;;;;;6265490;22;20031;-89
2021/11/26 02:18:35;;;;;;;123.68;51.92;;;-0.20;99.90;;;;;;6264684;22;20027;-88
2021/11/26 02:21:22;;;;;;;119.40;51.10;;;-0.10;99.90;;;;;;6263990;22;20109;-88
2021/11/26 02:24:11;;;;;;;123.47;51.67;;;-0.20;99.90;;;;;;6284871;22;20034;-90
2021/11/26 02:26:59;;;;;;;111.20;50.53;;;-0.10;99.90;;;;;;6306446;22;20023;-89
2021/11/26 02:29:53;;;;;;;115.32;50.58;;;-0.10;99.90;;;;;;6285087;22;20321;-90
2021/11/26 02:32:43;;;;;;;120.93;50.33;;;-0.20;99.90;;;;;;6282705;22;20034;-90
2021/11/26 02:35:31;;;;;;;124.45;51.35;;;-0.20;99.90;;;;;;6285145;22;20090;-90
2021/11/26 02:38:21;;;;;;;118.35;52.05;;;-0.20;99.90;;;;;;6283727;22;20031;-90
2021/11/26 02:41:09;;;;;;;127.00;53.03;;;-0.20;99.90;;;;;;6284011;22;20412;-91
2021/11/26 02:43:57;;;;;;;119.63;51.20;;;-0.10;99.90;;;;;;6283943;22;20117;-89
2021/11/26 02:46:49;;;;;;;127.78;53.65;;;-0.20;99.90;;;;;;6262467;22;20386;-92
2021/11/26 02:49:37;;;;;;;120.57;50.55;;;-0.20;99.90;;;;;;6284341;22;20136;-88
2021/11/26 02:52:24;;;;;;;120.18;50.63;;;-0.20;99.90;;;;;;6265354;22;20191;-89
2021/11/26 02:55:15;;;;;;;117.32;50.85;;;-0.20;99.90;;;;;;6233182;22;20023;-90
2021/11/26 02:58:03;;;;;;;125.38;51.40;;;-0.20;99.90;;;;;;6274812;22;20066;-90
2021/11/26 03:00:54;;;;;;;126.78;53.42;;;-0.30;99.90;;;;;;6253343;22;20027;-89
2021/11/26 03:03:41;;;;;;;127.70;52.97;;;-0.30;99.90;;;;;;6253425;22;20024;-89
2021/11/26 03:06:28;;;;;;;122.20;51.13;;;-0.30;99.90;;;;;;6233472;22;20027;-89
2021/11/26 03:09:16;;;;;;;132.88;54.17;;;-0.30;99.90;;;;;;6233189;22;20402;-90
2021/11/26 03:12:04;;;;;;;124.78;54.40;;;-0.30;99.90;;;;;;6233135;22;20039;-86
2021/11/26 03:14:52;;;;;;;122.35;51.22;;;-0.20;99.90;;;;;;6273843;22;20126;-90
2021/11/26 03:17:43;;;;;;;122.45;52.08;;;-0.20;99.90;;;;;;6253342;22;20031;-91
2021/11/26 03:20:33;;;;;;;120.10;51.05;;;-0.20;99.90;;;;;;6274238;22;20113;-90
2021/11/26 03:23:21;;;;;;;119.18;50.55;;;-0.30;99.90;;;;;;6232177;22;20031;-90
2021/11/26 03:26:08;;;;;;;124.63;52.30;;;-0.30;99.90;;;;;;6233170;22;20023;-90
2021/11/26 03:28:56;;;;;;;124.78;51.45;;;-0.30;99.90;;;;;;6254820;22;20046;-90
2021/11/26 03:31:43;;;;;;;112.45;50.08;;;-0.30;99.90;;;;;;6276218;22;20039;-89
2021/11/26 03:34:30;;;;;;;129.07;52.83;;;-0.30;99.90;;;;;;6252805;22;20256;-89
2021/11/26 03:37:18;;;;;;;121.30;50.65;;;-0.30;99.90;;;;;;6258014;22;20023;-88
2021/11/26 03:40:11;;;;;;;118.10;51.17;;;-0.30;99.90;;;;;;6254727;22;20098;-91
2021/11/26 03:43:00;;;;;;;119.00;49.97;;;-0.20;99.90;;;;;;6276928;22;20089;-90
2021/11/26 03:45:49;;;;;;;114.28;50.47;;;-0.20;99.90;;;;;;6254739;22;20336;-88
2021/11/26 03:48:37;;;;;;;114.10;48.85;;;-0.20;99.90;;;;;;6253189;22;20024;-90
2021/11/26 03:51:27;;;;;;;112.68;49.17;;;-0.20;99.90;;;;;;6232994;22;20332;-89
2021/11/26 03:54:15;;;;;;;111.70;49.88;;;-0.10;99.90;;;;;;6273893;22;20337;-89
2021/11/26 03:57:05;;;;;;;119.80;49.17;;;-0.20;99.90;;;;;;6285511;22;20092;-90
2021/11/26 03:59:52;;;;;;;115.03;47.95;;;-0.10;99.90;;;;;;6285722;22;20121;-88
2021/11/26 04:02:40;;;;;;;108.80;48.08;;;-0.10;99.90;;;;;;6266156;22;20414;-88
2021/11/26 04:05:28;;;;;;;112.88;49.50;;;-0.10;99.90;;;;;;6285764;22;20046;-88
2021/11/26 04:08:20;;;;;;;100.32;46.25;;;-0.10;99.90;;;;;;6285050;22;20042;-89
2021/11/26 04:11:07;;;;;;;105.43;44.90;;;-0.10;99.90;;;;;;6265209;22;20038;-90
2021/11/26 04:13:54;;;;;;;100.50;47.13;;;-0.10;99.90;;;;;;6284137;22;20027;-88
2021/11/26 04:16:41;;;;;;;106.00;47.40;;;-0.10;99.90;;;;;;6263987;22;20136;-90
2021/11/26 04:19:29;;;;;;;105.78;45.17;;;-0.20;99.90;;;;;;6285127;22;20023;-89
2021/11/26 04:22:19;;;;;;;97.93;44.35;;;-0.10;99.90;;;;;;6242391;22;20023;-91
2021/11/26 04:25:11;;;;;;;114.90;48.78;;;-0.10;99.90;;;;;;6309396;22;20027;-90
2021/11/26 04:27:58;;;;;;;108.68;47.58;;;-0.10;99.90;;;;;;6307129;22;20126;-89
2021/11/26 04:30:46;;;;;;;114.82;49.80;;;-0.20;99.90;;;;;;6264490;22;20394;-88
2021/11/26 04:33:33;;;;;;;128.13;50.67;;;-0.30;99.90;;;;;;6263861;22;20115;-88
2021/11/26 04:36:23;;;;;;;122.18;52.17;;;-0.40;99.90;;;;;;6304874;22;20082;-89
2021/11/26 04:39:15;;;;;;;127.72;52.53;;;-0.30;99.90;;;;;;6285239;22;20030;-89
2021/11/26 04:42:02;;;;;;;121.80;50.10;;;-0.40;99.90;;;;;;6284679;22;20100;-90
2021/11/26 04:44:50;;;;;;;123.15;51.72;;;-0.40;99.90;;;;;;6307440;22;20439;-89
2021/11/26 04:47:39;;;;;;;137.40;52.97;;;-0.40;99.90;;;;;;6284967;22;20019;-90
2021/11/26 04:50:26;;;;;;;140.40;53.05;;;-0.40;99.90;;;;;;6282538;22;20024;-89
2021/11/26 04:53:13;;;;;;;142.82;55.33;;;-0.50;99.90;;;;;;6285538;22;20027;-87
2021/11/26 04:56:01;;;;;;;148.32;54.22;;;-0.50;99.90;;;;;;6308445;22;20056;-89
2021/11/26 04:58:49;;;;;;;146.70;56.15;;;-0.50;99.90;;;;;;6305805;22;20027;-89
2021/11/26 05:01:42;;;;;;;153.55;56.47;;;-0.50;99.90;;;;;;6286271;22;20278;-89
2021/11/26 05:05:01;;;;;;;152.32;56.25;;;-0.50;99.90;;;;;;6285477;22;20114;-87
2021/11/26 05:07:49;;;;;;;157.80;57.50;;;-0.50;99.90;;;;;;6308316;22;20144;-87
2021/11/26 05:10:36;;;;;;;157.35;56.58;;;-0.50;99.90;;;;;;6263292;22;20031;-88
2021/11/26 05:13:28;;;;;;;161.95;58.17;;;-0.60;99.90;;;;;;6265730;22;20029;-88
2021/11/26 05:16:15;;;;;;;151.43;58.20;;;-0.60;99.90;;;;;;6299417;22;20027;-88
2021/11/26 05:19:03;;;;;;;159.32;56.72;;;-0.60;99.90;;;;;;6298233;22;20023;-86
2021/11/26 05:21:50;;;;;;;150.10;53.50;;;-0.60;99.90;;;;;;6300889;22;20057;-88
2021/11/26 05:24:37;;;;;;;139.88;53.30;;;-0.60;99.90;;;;;;6258300;22;20049;-88
2021/11/26 05:27:24;;;;;;;144.10;51.40;;;-0.60;99.90;;;;;;6300825;22;20102;-84
2021/11/26 05:30:13;;;;;;;138.75;51.35;;;-0.60;99.90;;;;;;6298263;22;20168;-85
2021/11/26 05:33:03;;;;;;;133.57;53.15;;;-0.60;99.90;;;;;;6331471;22;20011;-85
2021/11/26 05:35:56;;;;;;;134.88;50.60;;;-0.50;99.90;;;;;;6308256;22;20011;-85
2021/11/26 05:38:46;;;;;;;132.63;53.42;;;-0.50;99.90;;;;;;6290794;22;20077;-85
2021/11/26 05:41:34;;;;;;;152.93;56.58;;;-0.50;99.90;;;;;;6310431;22;20026;-85
2021/11/26 05:44:25;;;;;;;146.48;54.22;;;-0.50;99.90;;;;;;6305301;22;20024;-85
2021/11/26 05:47:20;;;;;;;146.07;53.60;;;-0.50;99.90;;;;;;6300861;22;20023;-85
2021/11/26 06:02:41;;;;;;;;;;;;;;;;;;;;;
2021/11/26 06:06:55;;;;;;;125.35;51.25;;;-0.30;99.90;;;;;;6211542;23;20183;-84
2021/11/26 06:09:51;;;;;;;136.00;50.35;;;-0.20;99.90;;;;;;6191623;23;20031;-86
2021/11/26 06:12:39;;;;;;;132.05;52.25;;;-0.20;99.90;;;;;;6170039;23;20027;-83
2021/11/26 06:15:29;;;;;;;128.43;51.42;;;-0.30;99.90;;;;;;6196216;23;20028;-85
2021/11/26 06:18:16;;;;;;;128.02;49.20;;;-0.20;99.90;;;;;;6195814;23;20075;-83
2021/11/26 06:21:03;;;;;;;124.10;48.90;;;-0.20;99.90;;;;;;6192805;23;20035;-86
2021/11/26 06:23:51;;;;;;;119.13;48.95;;;-0.20;99.90;;;;;;6227272;23;20034;-89
2021/11/26 06:26:41;;;;;;;129.07;51.50;;;-0.20;99.90;;;;;;6211357;23;20025;-88
2021/11/26 06:29:28;;;;;;;132.88;51.65;;;-0.20;99.90;;;;;;6250024;22;20023;-89
2021/11/26 06:32:16;;;;;;;130.48;50.17;;;-0.20;99.90;;;;;;6263637;22;20092;-89
2021/11/26 06:35:05;;;;;;;130.43;50.25;;;-0.20;99.90;;;;;;6280841;22;20081;-89
2021/11/26 06:37:55;;;;;;;137.75;51.30;;;-0.30;99.90;;;;;;6260288;22;20430;-87
2021/11/26 06:40:42;;;;;;;149.63;53.22;;;-0.30;99.90;;;;;;6283755;22;20108;-89
2021/11/26 06:43:30;;;;;;;138.50;52.05;;;-0.30;99.90;;;;;;6281036;22;20134;-87
2021/11/26 06:46:17;;;;;;;133.50;51.33;;;-0.40;99.90;;;;;;6304614;22;20051;-86
2021/11/26 06:49:06;;;;;;;138.65;50.53;;;-0.40;99.90;;;;;;6282613;22;20027;-87
2021/11/26 06:51:54;;;;;;;138.93;51.17;;;-0.40;99.90;;;;;;6262016;22;20030;-86
2021/11/26 06:54:43;;;;;;;149.95;53.90;;;-0.40;99.90;;;;;;6281436;22;20027;-87
2021/11/26 06:57:31;;;;;;;142.13;53.10;;;-0.30;99.90;;;;;;6303806;22;20487;-91
2021/11/26 07:00:19;;;;;;;158.10;55.83;;;-0.30;99.90;;;;;;6258634;22;20023;-90
2021/11/26 07:03:07;;;;;;;139.55;54.00;;;-0.20;99.90;;;;;;6306554;22;20026;-90
2021/11/26 07:05:56;;;;;;;144.27;53.78;;;-0.20;99.90;;;;;;6263717;22;20023;-93
2021/11/26 07:08:44;;;;;;;153.50;56.92;;;-0.20;99.90;;;;;;6285459;22;20030;-90
2021/11/26 07:11:36;;;;;;;143.45;55.00;;;-0.20;99.90;;;;;;6307270;22;20156;-89
2021/11/26 07:14:26;;;;;;;133.68;51.08;;;-0.20;99.90;;;;;;6287297;22;20039;-91
2021/11/26 07:17:18;;;;;;;145.75;55.58;;;-0.20;99.90;;;;;;6285348;22;20165;-91
2021/11/26 07:20:09;;;;;;;153.15;56.42;;;-0.20;99.90;;;;;;6284978;22;20031;-92
2021/11/26 07:22:59;;;;;;;130.57;50.80;;;-0.20;99.90;;;;;;6306298;22;20031;-90
2021/11/26 07:25:46;;;;;;;144.75;53.22;;;-0.20;99.90;;;;;;6287076;22;20072;-90
2021/11/26 07:28:34;;;;;;;131.98;51.75;;;-0.30;99.90;;;;;;6307225;22;20023;-90
2021/11/26 07:31:21;;;;;;;146.52;50.53;;;-0.30;99.90;;;;;;6285576;22;20027;-91
2021/11/26 07:34:08;;;;;;;138.45;52.90;;;-0.30;99.90;;;;;;6304627;22;20023;-90
2021/11/26 07:36:57;;;;;;;143.63;52.03;;;-0.30;99.90;;;;;;6267227;22;20027;-90
2021/11/26 07:39:46;;;;;;;142.55;51.85;;;-0.20;99.90;;;;;;6284633;22;20035;-90
2021/11/26 07:42:40;;;;;;;138.65;50.75;;;-0.20;99.90;;;;;;6247238;22;20027;-91
2021/11/26 07:45:30;;;;;;;134.27;51.10;;;-0.20;99.90;;;;;;6289750;22;20023;-91
2021/11/26 07:48:18;;;;;;;139.95;50.58;;;-0.20;99.90;;;;;;6283624;22;20019;-93
2021/11/26 07:51:05;;;;;;;136.10;52.28;;;-0.20;99.90;;;;;;6307166;22;20311;-86
2021/11/26 07:53:55;;;;;;;139.05;51.05;;;-0.10;99.90;;;;;;6263860;22;20102;-93
2021/11/26 07:56:43;;;;;;;137.27;51.00;;;-0.10;99.90;;;;;;6285242;22;20034;-90
2021/11/26 07:59:30;;;;;;;129.98;49.72;;;-0.10;99.90;;;;;;6307769;22;20035;-90
2021/11/26 08:02:17;;;;;;;129.95;51.13;;;-0.10;99.90;;;;;;6245533;22;20414;-91
2021/11/26 08:05:07;;;;;;;136.02;50.65;;;-0.10;99.90;;;;;;6284386;22;20046;-93
2021/11/26 08:08:00;;;;;;;140.02;52.90;;;-0.20;99.90;;;;;;6284711;22;20034;-92
2021/11/26 08:10:47;;;;;;;135.32;52.60;;;-0.10;99.90;;;;;;6289150;22;20102;-91
2021/11/26 08:13:37;;;;;;;140.27;53.45;;;0.00;99.90;;;;;;6269739;22;20411;-92
2021/11/26 08:16:24;;;;;;;140.48;53.72;;;0.00;99.90;;;;;;6268377;22;20421;-91
2021/11/26 08:19:14;;;;;;;142.13;54.10;;;0.10;99.90;;;;;;6265271;22;20341;-90
2021/11/26 08:22:05;;;;;;;138.38;54.13;;;0.10;99.90;;;;;;6264572;22;20030;-91
2021/11/26 08:24:52;;;;;;;138.43;52.35;;;0.10;99.90;;;;;;6286256;22;20291;-90
2021/11/26 08:27:42;;;;;;;134.93;53.55;;;0.10;99.90;;;;;;6307114;22;20034;-91
2021/11/26 08:30:34;;;;;;;141.43;53.45;;;0.10;99.90;;;;;;6263673;22;20422;-90
2021/11/26 08:33:24;;;;;;;141.48;53.17;;;0.10;99.90;;;;;;6287807;22;20034;-90
2021/11/26 08:36:21;;;;;;;149.35;55.58;;;0.10;99.90;;;;;;6285253;22;20027;-90
2021/11/26 08:39:11;;;;;;;146.93;54.15;;;0.10;99.90;;;;;;6264451;22;20031;-91
2021/11/26 08:41:58;;;;;;;148.10;56.05;;;0.00;99.90;;;;;;6285124;22;20027;-91
2021/11/26 08:44:45;;;;;;;160.60;58.58;;;0.00;99.90;;;;;;6283606;22;20053;-90
2021/11/26 08:47:35;;;;;;;157.80;56.45;;;0.10;99.90;;;;;;6285630;22;20019;-89
2021/11/26 08:50:22;;;;;;;162.20;57.40;;;0.20;99.90;;;;;;6306843;22;20019;-89
2021/11/26 08:53:12;;;;;;;158.27;58.05;;;0.20;99.90;;;;;;6264097;22;20071;-90
2021/11/26 08:56:03;;;;;;;157.20;58.78;;;0.20;99.90;;;;;;6282436;22;20034;-88
2021/11/26 08:58:52;;;;;;;159.80;58.95;;;0.20;99.90;;;;;;6307675;22;20078;-91
2021/11/26 09:01:40;;;;;;;159.80;60.40;;;0.30;99.90;;;;;;6307114;22;20027;-89
2021/11/26 09:04:27;;;;;;;157.82;58.25;;;0.30;99.90;;;;;;6263723;22;20038;-89
2021/11/26 09:07:14;;;;;;;162.20;56.80;;;0.40;99.90;;;;;;6265739;22;20514;-90
2021/11/26 09:10:02;;;;;;;158.52;57.33;;;0.40;99.90;;;;;;6268838;22;20023;-89
2021/11/26 09:12:51;;;;;;;137.57;52.13;;;0.50;99.90;;;;;;6293850;22;20042;-88
2021/11/26 09:15:39;;;;;;;143.35;54.03;;;0.50;99.90;;;;;;6290461;22;20027;-90
2021/11/26 09:18:30;;;;;;;146.48;55.22;;;0.50;99.90;;;;;;6314774;22;20025;-90
2021/11/26 09:21:17;;;;;;;136.45;51.95;;;0.60;99.90;;;;;;6246686;22;20415;-88
2021/11/26 09:24:05;;;;;;;127.85;49.95;;;0.60;99.90;;;;;;6307416;22;20023;-88
2021/11/26 09:26:52;;;;;;;119.15;48.53;;;0.60;99.90;;;;;;6288495;22;20023;-88
2021/11/26 09:29:44;;;;;;;114.20;45.70;;;0.60;99.90;;;;;;6309239;22;20015;-88
2021/11/26 09:32:31;;;;;;;93.65;34.97;;;0.70;99.90;;;;;;6290824;22;20049;-90
2021/11/26 09:35:19;;;;;;;117.00;46.63;;;0.80;99.90;;;;;;6292421;22;20038;-89
2021/11/26 09:38:06;;;;;;;119.40;47.83;;;0.80;99.90;;;;;;6289761;22;20059;-91
2021/11/26 09:40:54;;;;;;;108.85;43.25;;;0.70;99.90;;;;;;6265761;22;20023;-89
2021/11/26 09:43:44;;;;;;;111.97;44.45;;;0.80;99.90;;;;;;6289157;22;20027;-91
2021/11/26 09:46:38;;;;;;;105.18;42.67;;;0.80;99.90;;;;;;6284878;22;20023;-88
2021/11/26 09:49:27;;;;;;;107.70;43.33;;;0.80;99.90;;;;;;6276680;22;20376;-88
2021/11/26 09:52:15;;;;;;;108.18;41.50;;;0.80;99.90;;;;;;6286566;22;20020;-89
2021/11/26 09:55:05;;;;;;;102.88;39.53;;;0.80;99.90;;;;;;6283247;22;20046;-87
2021/11/26 09:57:54;;;;;;;104.95;42.42;;;0.80;99.90;;;;;;6283195;22;20023;-87
2021/11/26 10:00:46;;;;;;;98.22;39.53;;;0.70;99.90;;;;;;6282559;22;20390;-90
2021/11/26 10:03:51;;;;;;;105.63;39.95;;;0.80;99.90;;;;;;6262709;22;20023;-89
2021/11/26 10:06:40;;;;;;;98.05;40.80;;;0.80;99.90;;;;;;6284845;22;20034;-90
2021/11/26 10:09:27;;;;;;;104.65;42.33;;;0.80;99.90;;;;;;6284824;22;20020;-90
2021/11/26 10:12:15;;;;;;;99.57;40.20;;;0.80;99.90;;;;;;6270689;22;20045;-89
2021/11/26 10:15:05;;;;;;;107.72;43.35;;;0.90;99.90;;;;;;6299574;22;20057;-90
2021/11/26 10:18:20;;;;;;;106.78;42.88;;;1.00;99.90;;;;;;6326302;22;20126;-87
2021/11/26 10:21:12;;;;;;;111.40;45.58;;;1.10;99.90;;;;;;6302577;22;20064;-91
2021/11/26 10:23:59;;;;;;;104.72;44.08;;;1.10;99.90;;;;;;6300935;22;20043;-88
2021/11/26 10:26:55;;;;;;;115.60;48.35;;;1.20;99.90;;;;;;6321608;22;20453;-91
2021/11/26 10:29:43;;;;;;;108.40;46.53;;;1.40;99.90;;;;;;6293175;22;20398;-89
2021/11/26 10:32:31;;;;;;;113.95;46.75;;;1.50;99.90;;;;;;6263551;22;20544;-86
2021/11/26 10:35:18;;;;;;;120.50;49.55;;;1.40;99.90;;;;;;6263097;22;20030;-88
2021/11/26 10:38:08;;;;;;;123.00;49.72;;;1.40;99.90;;;;;;6308106;22;20031;-87
2021/11/26 10:44:49;;;;;;;130.27;48.95;;;1.20;99.90;;;;;;6301393;22;20023;-89
2021/11/26 10:48:43;;;;;;;126.85;51.20;;;1.10;99.90;;;;;;6267530;22;20023;-88
2021/11/26 10:51:18;;;;;;;135.27;50.00;;;1.10;99.90;;;;;;6302611;22;20020;-88
2021/11/26 10:57:38;;;;;;;135.38;50.35;;;1.00;99.90;;;;;;6303142;22;20046;-89
2021/11/26 11:00:26;;;;;;;134.55;49.13;;;1.00;99.90;;;;;;6284200;22;20322;-87
2021/11/26 11:03:14;;;;;;;145.27;51.72;;;0.90;99.90;;;;;;6259694;22;20019;-84
2021/11/26 11:06:01;;;;;;;149.00;50.92;;;0.90;99.90;;;;;;6282826;22;20038;-84
2021/11/26 11:09:11;;;;;;;154.73;51.38;;;0.90;99.90;;;;;;6283449;22;20104;-88
2021/11/26 11:11:58;;;;;;;151.27;51.33;;;1.00;99.90;;;;;;6292417;22;20049;-88
2021/11/26 11:14:59;;;;;;;148.27;53.30;;;1.00;99.90;;;;;;6247536;22;20023;-90
2021/11/26 11:17:48;;;;;;;151.50;55.77;;;1.00;99.90;;;;;;6311269;22;20081;-87
2021/11/26 11:20:39;;;;;;;151.68;53.50;;;1.00;99.90;;;;;;6286205;22;20102;-88
2021/11/26 11:23:29;;;;;;;157.40;52.03;;;1.00;99.90;;;;;;6285029;22;20062;-86
2021/11/26 11:26:16;;;;;;;134.35;51.88;;;1.10;99.90;;;;;;6283936;22;20033;-89
2021/11/26 11:29:04;;;;;;;141.68;51.63;;;1.10;99.90;;;;;;6279162;22;20023;-88
2021/11/26 11:32:06;;;;;;;129.52;48.83;;;1.10;99.90;;;;;;6282651;22;20038;-87
2021/11/26 11:34:57;;;;;;;146.25;48.45;;;1.10;99.90;;;;;;6283320;22;20422;-84
2021/11/26 11:37:47;;;;;;;146.27;49.60;;;1.10;99.90;;;;;;6285203;22;20019;-89
2021/11/26 11:40:42;;;;;;;136.85;49.28;;;1.10;99.90;;;;;;6287421;22;20126;-87
2021/11/26 11:43:50;;;;;;;137.10;48.63;;;1.10;99.90;;;;;;6283022;22;20426;-88
2021/11/26 11:46:39;;;;;;;133.13;47.25;;;1.10;99.90;;;;;;6283902;22;20404;-86
2021/11/26 11:49:31;;;;;;;139.60;48.28;;;1.20;99.90;;;;;;6283600;22;20102;-85
2021/11/26 11:52:19;;;;;;;132.32;47.88;;;1.20;99.90;;;;;;6285638;22;20061;-86
2021/11/26 11:55:30;;;;;;;129.73;47.88;;;1.20;99.90;;;;;;6255567;22;20095;-85
2021/11/26 11:58:33;;;;;;;;;;;;;;;;;;;;;
2021/11/26 12:01:49;;;;;;;120.80;45.63;;;1.30;99.90;;;;;;6155993;23;20025;-89
2021/11/26 12:05:14;;;;;;;;;;;;;;;;;;;;;
2021/11/26 12:08:04;;;;;;;120.72;43.22;;;1.30;99.90;;;;;;6153272;23;20029;-90
2021/11/26 12:11:32;;;;;;;118.25;44.53;;;1.30;99.90;;;;;;6136989;23;20022;-90
2021/11/26 12:14:58;;;;;;;;;;;1.30;99.90;;;;;;6011540;23;20028;-90
2021/11/26 12:18:10;;;;;;;120.47;44.63;;;1.30;99.90;;;;;;6012450;23;19922;-89
2021/11/26 12:20:59;;;;;;;111.97;42.83;;;1.30;99.90;;;;;;6103446;23;20034;-89
2021/11/26 12:24:05;;;;;;;119.20;41.40;;;1.30;99.90;;;;;;6111840;23;20014;-86
2021/11/26 12:26:58;;;;;;;111.80;42.28;;;1.30;99.90;;;;;;6124211;23;20029;-90
2021/11/26 12:29:51;;;;;;;115.25;42.92;;;1.40;99.90;;;;;;6120871;23;20030;-91
2021/11/26 12:45:44;;;;;;;113.75;42.53;;;1.50;99.90;;;;;;5940885;24;20017;-90
2021/11/26 13:01:18;;;;;;;103.13;40.53;;;1.50;99.90;;;;;;5873392;24;20372;-91
2021/11/26 13:04:11;;;;;;;107.70;42.53;;;1.50;99.90;;;;;;5889712;24;20030;-92
2021/11/26 13:07:15;;;;;;;104.30;40.70;;;1.50;99.90;;;;;;5954367;24;20060;-90
2021/11/26 13:10:23;;;;;;;98.57;41.20;;;1.50;99.90;;;;;;6064536;23;20027;-86
2021/11/26 13:13:36;;;;;;;98.20;38.00;;;1.60;99.90;;;;;;6135532;23;20022;-91
2021/11/26 13:16:55;;;;;;;90.45;37.58;;;1.60;99.90;;;;;;6035222;23;20038;-89
2021/11/26 13:20:14;;;;;;;84.95;36.72;;;1.80;99.90;;;;;;6069211;23;20053;-90
2021/11/26 13:23:36;;;;;;;;;;;;;;;;;;;;;
2021/11/26 13:26:28;;;;;;;67.68;31.58;;;2.70;99.90;;;;;;6152902;23;20036;-86
2021/11/26 13:29:17;;;;;;;63.65;29.80;;;2.90;99.90;;;;;;6131890;23;20029;-85
2021/11/26 13:32:07;;;;;;;60.63;28.48;;;2.80;99.90;;;;;;6131402;23;20492;-89
2021/11/26 13:34:56;;;;;;;59.22;26.65;;;2.80;99.90;;;;;;6206606;22;20015;-90
2021/11/26 13:37:50;;;;;;;59.58;27.50;;;2.90;99.90;;;;;;6273424;22;20032;-86
2021/11/26 13:40:45;;;;;;;51.65;25.05;;;3.00;99.90;;;;;;6254147;22;20032;-89
2021/11/26 13:43:40;;;;;;;45.45;24.90;;;3.00;99.90;;;;;;6256762;22;20066;-88
2021/11/26 13:46:35;;;;;;;47.65;22.65;;;3.10;99.90;;;;;;6280456;22;20442;-89
2021/11/26 13:49:25;;;;;;;47.40;24.80;;;3.10;99.90;;;;;;6276671;22;20019;-89
2021/11/26 13:52:14;;;;;;;47.42;24.05;;;3.10;99.90;;;;;;6256717;22;20023;-89
2021/11/26 13:55:24;;;;;;;35.40;19.95;;;3.10;99.90;;;;;;6288630;22;20081;-91
2021/11/26 13:58:13;;;;;;;32.42;18.05;;;3.00;99.90;;;;;;6284470;22;20027;-90
2021/11/26 14:01:01;;;;;;;28.85;17.80;;;2.90;99.90;;;;;;6285391;22;20026;-91
2021/11/26 14:04:01;;;;;;;30.05;17.15;;;2.80;99.90;;;;;;6307810;22;20406;-89
2021/11/26 14:07:15;;;;;;;34.45;18.67;;;2.80;99.90;;;;;;6287181;22;20041;-87
2021/11/26 14:10:08;;;;;;;32.85;18.60;;;2.70;99.90;;;;;;6287100;22;20038;-90
2021/11/26 14:13:06;;;;;;;33.17;18.58;;;2.60;99.90;;;;;;6282560;22;20418;-87
2021/11/26 14:16:09;;;;;;;32.22;17.65;;;2.50;99.90;;;;;;6283118;22;20031;-88
2021/11/26 14:18:59;;;;;;;32.80;17.00;;;2.50;99.90;;;;;;6303994;22;20023;-87
2021/11/26 14:21:55;;;;;;;26.45;17.00;;;2.40;99.90;;;;;;6282465;22;20425;-88
2021/11/26 14:24:44;;;;;;;29.98;16.98;;;2.30;99.90;;;;;;6281229;22;20026;-87
2021/11/26 14:27:41;;;;;;;35.60;18.05;;;2.20;99.90;;;;;;6283273;22;20080;-89
2021/11/26 14:30:33;;;;;;;30.08;16.50;;;2.30;99.90;;;;;;6284792;22;20028;-88
2021/11/26 14:33:21;;;;;;;27.35;14.48;;;2.20;99.90;;;;;;6282277;22;20045;-89
2021/11/26 14:36:13;;;;;;;27.83;15.63;;;2.20;99.90;;;;;;6306660;22;20126;-89
2021/11/26 14:39:01;;;;;;;26.48;14.55;;;2.10;99.90;;;;;;6286211;22;20034;-89
2021/11/26 14:41:59;;;;;;;23.55;13.23;;;2.10;99.90;;;;;;6307539;22;20031;-89
2021/11/26 14:44:55;;;;;;;29.15;14.63;;;2.10;99.90;;;;;;6284683;22;20034;-89
2021/11/26 14:47:42;;;;;;;25.17;14.52;;;2.10;99.90;;;;;;6281770;22;20418;-89
2021/11/26 14:50:29;;;;;;;33.17;19.25;;;2.00;99.90;;;;;;6281192;22;20027;-89
2021/11/26 14:53:20;;;;;;;39.30;18.52;;;2.00;99.90;;;;;;6283418;22;20031;-92
2021/11/26 14:56:10;;;;;;;28.48;17.40;;;2.00;99.90;;;;;;6306095;22;20080;-92
2021/11/26 14:58:58;;;;;;;25.80;14.98;;;1.90;99.90;;;;;;6289070;22;20046;-90
2021/11/26 15:01:50;;;;;;;23.77;14.63;;;1.90;99.90;;;;;;6285367;22;20019;-92
2021/11/26 15:04:38;;;;;;;33.88;14.82;;;1.90;99.90;;;;;;6287568;22;20079;-92
2021/11/26 15:07:28;;;;;;;29.08;16.85;;;1.80;99.90;;;;;;6265017;22;20026;-93
2021/11/26 15:10:17;;;;;;;28.33;14.00;;;1.80;99.90;;;;;;6311060;22;20023;-93
2021/11/26 15:13:08;;;;;;;27.30;14.93;;;1.80;99.90;;;;;;6309535;22;20028;-92
2021/11/26 15:15:55;;;;;;;28.00;14.75;;;1.80;99.90;;;;;;6268049;22;20077;-90
2021/11/26 15:19:19;;;;;;;;;;;;;;;;;;;;;